sensor_id;sensor_type;location;lat;lon;timestamp;temperature;humidity
45685;DHT22;46836;48.388;16.210;2023-05-28T00:01:03;12.20;99.90
45685;DHT22;46836;48.388;16.210;2023-05-28T00:03:31;12.20;99.90
45685;DHT22;46836;48.388;16.210;2023-05-28T00:05:59;12.00;99.90
45685;DHT22;46836;48.388;16.210;2023-05-28T00:08:26;12.00;99.90
45685;DHT22;46836;48.388;16.210;2023-05-28T00:10:54;11.90;99.90
45685;DHT22;46836;48.388;16.210;2023-05-28T00:13:29;11.90;99.90
45685;DHT22;46836;48.388;16.210;2023-05-28T00:15:57;11.90;99.90
45685;DHT22;46836;48.388;16.210;2023-05-28T00:18:25;11.90;99.90
45685;DHT22;46836;48.388;16.210;2023-05-28T00:20:55;11.80;99.90
45685;DHT22;46836;48.388;16.210;2023-05-28T00:23:22;11.80;99.90
45685;DHT22;46836;48.388;16.210;2023-05-28T00:25:49;11.80;99.90
45685;DHT22;46836;48.388;16.210;2023-05-28T00:28:17;11.80;99.90
45685;DHT22;46836;48.388;16.210;2023-05-28T00:30:44;11.80;99.90
45685;DHT22;46836;48.388;16.210;2023-05-28T00:33:11;11.70;99.90
45685;DHT22;46836;48.388;16.210;2023-05-28T00:35:38;11.70;99.90
45685;DHT22;46836;48.388;16.210;2023-05-28T00:38:06;11.70;99.90
45685;DHT22;46836;48.388;16.210;2023-05-28T00:40:33;11.60;99.90
45685;DHT22;46836;48.388;16.210;2023-05-28T00:43:00;11.60;99.90
45685;DHT22;46836;48.388;16.210;2023-05-28T00:45:27;11.60;99.90
45685;DHT22;46836;48.388;16.210;2023-05-28T00:47:54;11.60;99.90
45685;DHT22;46836;48.388;16.210;2023-05-28T00:50:21;11.60;99.90
45685;DHT22;46836;48.388;16.210;2023-05-28T00:52:50;11.50;99.90
45685;DHT22;46836;48.388;16.210;2023-05-28T00:55:20;11.40;99.90
45685;DHT22;46836;48.388;16.210;2023-05-28T00:57:47;11.40;99.90
45685;DHT22;46836;48.388;16.210;2023-05-28T01:00:21;11.30;99.90
45685;DHT22;46836;48.388;16.210;2023-05-28T01:02:48;11.30;99.90
45685;DHT22;46836;48.388;16.210;2023-05-28T01:05:16;11.30;99.90
45685;DHT22;46836;48.388;16.210;2023-05-28T01:07:44;11.20;99.90
45685;DHT22;46836;48.388;16.210;2023-05-28T01:10:11;11.20;99.90
45685;DHT22;46836;48.388;16.210;2023-05-28T01:12:40;11.10;99.90
45685;DHT22;46836;48.388;16.210;2023-05-28T01:15:08;11.20;99.90
45685;DHT22;46836;48.388;16.210;2023-05-28T01:17:36;11.10;99.90
45685;DHT22;46836;48.388;16.210;2023-05-28T01:20:06;11.10;99.90
45685;DHT22;46836;48.388;16.210;2023-05-28T01:22:38;11.00;99.90
45685;DHT22;46836;48.388;16.210;2023-05-28T01:25:07;10.90;99.90
45685;DHT22;46836;48.388;16.210;2023-05-28T01:27:39;10.90;99.90
45685;DHT22;46836;48.388;16.210;2023-05-28T01:30:08;10.90;99.90
45685;DHT22;46836;48.388;16.210;2023-05-28T01:32:38;10.80;99.90
45685;DHT22;46836;48.388;16.210;2023-05-28T01:35:08;10.80;99.90
45685;DHT22;46836;48.388;16.210;2023-05-28T01:37:46;10.80;99.90
45685;DHT22;46836;48.388;16.210;2023-05-28T01:40:16;10.80;99.90
45685;DHT22;46836;48.388;16.210;2023-05-28T01:42:45;10.70;99.90
45685;DHT22;46836;48.388;16.210;2023-05-28T01:45:14;10.70;99.90
45685;DHT22;46836;48.388;16.210;2023-05-28T01:47:42;10.70;99.90
45685;DHT22;46836;48.388;16.210;2023-05-28T01:50:11;10.70;99.90
45685;DHT22;46836;48.388;16.210;2023-05-28T01:52:38;10.60;99.90
45685;DHT22;46836;48.388;16.210;2023-05-28T01:55:06;10.60;99.90
45685;DHT22;46836;48.388;16.210;2023-05-28T01:57:36;10.60;99.90
45685;DHT22;46836;48.388;16.210;2023-05-28T02:00:03;10.50;99.90
45685;DHT22;46836;48.388;16.210;2023-05-28T02:02:33;10.50;99.90
45685;DHT22;46836;48.388;16.210;2023-05-28T02:05:01;10.50;99.90
45685;DHT22;46836;48.388;16.210;2023-05-28T02:07:28;10.40;99.90
45685;DHT22;46836;48.388;16.210;2023-05-28T02:09:55;10.40;99.90
45685;DHT22;46836;48.388;16.210;2023-05-28T02:12:23;10.40;99.90
45685;DHT22;46836;48.388;16.210;2023-05-28T02:14:50;10.40;99.90
45685;DHT22;46836;48.388;16.210;2023-05-28T02:17:17;10.40;99.90
45685;DHT22;46836;48.388;16.210;2023-05-28T02:19:46;10.30;99.90
45685;DHT22;46836;48.388;16.210;2023-05-28T02:22:13;10.30;99.90
45685;DHT22;46836;48.388;16.210;2023-05-28T02:24:40;10.30;99.90
45685;DHT22;46836;48.388;16.210;2023-05-28T02:27:08;10.30;99.90
45685;DHT22;46836;48.388;16.210;2023-05-28T02:29:36;10.20;99.90
45685;DHT22;46836;48.388;16.210;2023-05-28T02:32:03;10.20;99.90
45685;DHT22;46836;48.388;16.210;2023-05-28T02:34:31;10.20;99.90
45685;DHT22;46836;48.388;16.210;2023-05-28T02:36:58;10.20;99.90
45685;DHT22;46836;48.388;16.210;2023-05-28T02:39:27;10.10;99.90
45685;DHT22;46836;48.388;16.210;2023-05-28T02:41:54;10.10;99.90
45685;DHT22;46836;48.388;16.210;2023-05-28T02:44:22;10.10;99.90
45685;DHT22;46836;48.388;16.210;2023-05-28T02:46:49;10.00;99.90
45685;DHT22;46836;48.388;16.210;2023-05-28T02:49:16;10.00;99.90
45685;DHT22;46836;48.388;16.210;2023-05-28T02:51:43;10.00;99.90
45685;DHT22;46836;48.388;16.210;2023-05-28T02:54:10;10.00;99.90
45685;DHT22;46836;48.388;16.210;2023-05-28T02:56:37;9.90;99.90
45685;DHT22;46836;48.388;16.210;2023-05-28T02:59:04;9.90;99.90
45685;DHT22;46836;48.388;16.210;2023-05-28T03:01:32;9.90;99.90
45685;DHT22;46836;48.388;16.210;2023-05-28T03:03:59;9.90;99.90
45685;DHT22;46836;48.388;16.210;2023-05-28T03:06:26;9.90;99.90
45685;DHT22;46836;48.388;16.210;2023-05-28T03:08:53;9.90;99.90
45685;DHT22;46836;48.388;16.210;2023-05-28T03:11:20;9.80;99.90
45685;DHT22;46836;48.388;16.210;2023-05-28T03:13:47;9.90;99.90
45685;DHT22;46836;48.388;16.210;2023-05-28T03:16:14;9.80;99.90
45685;DHT22;46836;48.388;16.210;2023-05-28T03:18:43;9.80;99.90
45685;DHT22;46836;48.388;16.210;2023-05-28T03:21:10;9.80;99.90
45685;DHT22;46836;48.388;16.210;2023-05-28T03:23:37;9.70;99.90
45685;DHT22;46836;48.388;16.210;2023-05-28T03:26:05;9.80;99.90
45685;DHT22;46836;48.388;16.210;2023-05-28T03:28:32;9.80;99.90
45685;DHT22;46836;48.388;16.210;2023-05-28T03:30:59;9.80;99.90
45685;DHT22;46836;48.388;16.210;2023-05-28T03:33:26;9.80;99.90
45685;DHT22;46836;48.388;16.210;2023-05-28T03:35:53;9.80;99.90
45685;DHT22;46836;48.388;16.210;2023-05-28T03:38:22;9.80;99.90
45685;DHT22;46836;48.388;16.210;2023-05-28T03:40:49;9.80;99.90
45685;DHT22;46836;48.388;16.210;2023-05-28T03:43:16;9.80;99.90
45685;DHT22;46836;48.388;16.210;2023-05-28T03:45:43;9.80;99.90
45685;DHT22;46836;48.388;16.210;2023-05-28T03:48:10;9.80;99.90
45685;DHT22;46836;48.388;16.210;2023-05-28T03:50:38;9.90;99.90
45685;DHT22;46836;48.388;16.210;2023-05-28T03:53:05;9.90;99.90
45685;DHT22;46836;48.388;16.210;2023-05-28T03:55:33;9.90;99.90
45685;DHT22;46836;48.388;16.210;2023-05-28T03:58:02;10.00;99.90
45685;DHT22;46836;48.388;16.210;2023-05-28T04:00:29;10.00;99.90
45685;DHT22;46836;48.388;16.210;2023-05-28T04:02:56;10.00;99.90
45685;DHT22;46836;48.388;16.210;2023-05-28T04:05:23;10.10;99.90
45685;DHT22;46836;48.388;16.210;2023-05-28T04:07:51;10.10;99.90
45685;DHT22;46836;48.388;16.210;2023-05-28T04:10:18;10.20;99.90
45685;DHT22;46836;48.388;16.210;2023-05-28T04:12:45;10.20;99.90
45685;DHT22;46836;48.388;16.210;2023-05-28T04:15:12;10.30;99.90
45685;DHT22;46836;48.388;16.210;2023-05-28T04:17:39;10.30;99.90
45685;DHT22;46836;48.388;16.210;2023-05-28T04:20:07;10.30;99.90
45685;DHT22;46836;48.388;16.210;2023-05-28T04:22:34;10.30;99.90
45685;DHT22;46836;48.388;16.210;2023-05-28T04:25:01;10.40;99.90
45685;DHT22;46836;48.388;16.210;2023-05-28T04:27:29;10.40;99.90
45685;DHT22;46836;48.388;16.210;2023-05-28T04:29:57;10.50;99.90
45685;DHT22;46836;48.388;16.210;2023-05-28T04:32:24;10.60;99.90
45685;DHT22;46836;48.388;16.210;2023-05-28T04:34:51;10.60;99.90
45685;DHT22;46836;48.388;16.210;2023-05-28T04:37:20;10.70;99.90
45685;DHT22;46836;48.388;16.210;2023-05-28T04:39:49;10.70;99.90
45685;DHT22;46836;48.388;16.210;2023-05-28T04:42:17;10.70;99.90
45685;DHT22;46836;48.388;16.210;2023-05-28T04:44:44;10.80;99.90
45685;DHT22;46836;48.388;16.210;2023-05-28T04:47:11;10.90;99.90
45685;DHT22;46836;48.388;16.210;2023-05-28T04:49:40;10.90;99.90
45685;DHT22;46836;48.388;16.210;2023-05-28T04:52:10;11.00;99.90
45685;DHT22;46836;48.388;16.210;2023-05-28T04:54:37;11.00;99.90
45685;DHT22;46836;48.388;16.210;2023-05-28T04:57:05;11.10;99.90
45685;DHT22;46836;48.388;16.210;2023-05-28T04:59:32;11.20;99.90
45685;DHT22;46836;48.388;16.210;2023-05-28T05:01:59;11.20;99.90
45685;DHT22;46836;48.388;16.210;2023-05-28T05:04:26;11.40;99.90
45685;DHT22;46836;48.388;16.210;2023-05-28T05:06:53;11.50;99.90
45685;DHT22;46836;48.388;16.210;2023-05-28T05:09:20;11.70;99.90
45685;DHT22;46836;48.388;16.210;2023-05-28T05:11:47;12.00;99.90
45685;DHT22;46836;48.388;16.210;2023-05-28T05:14:14;12.20;99.90
45685;DHT22;46836;48.388;16.210;2023-05-28T05:16:41;12.40;99.90
45685;DHT22;46836;48.388;16.210;2023-05-28T05:19:09;12.60;99.90
45685;DHT22;46836;48.388;16.210;2023-05-28T05:21:36;12.70;99.90
45685;DHT22;46836;48.388;16.210;2023-05-28T05:24:04;12.80;99.90
45685;DHT22;46836;48.388;16.210;2023-05-28T05:26:32;12.80;99.90
45685;DHT22;46836;48.388;16.210;2023-05-28T05:28:59;12.80;99.90
45685;DHT22;46836;48.388;16.210;2023-05-28T05:31:26;12.80;99.90
45685;DHT22;46836;48.388;16.210;2023-05-28T05:33:53;12.80;99.90
45685;DHT22;46836;48.388;16.210;2023-05-28T05:36:20;12.90;99.90
45685;DHT22;46836;48.388;16.210;2023-05-28T05:38:48;12.90;99.90
45685;DHT22;46836;48.388;16.210;2023-05-28T05:41:15;13.00;99.90
45685;DHT22;46836;48.388;16.210;2023-05-28T05:43:42;13.00;99.90
45685;DHT22;46836;48.388;16.210;2023-05-28T05:46:09;13.10;99.90
45685;DHT22;46836;48.388;16.210;2023-05-28T05:48:37;13.20;99.90
45685;DHT22;46836;48.388;16.210;2023-05-28T05:51:04;13.20;99.90
45685;DHT22;46836;48.388;16.210;2023-05-28T05:53:31;13.30;99.90
45685;DHT22;46836;48.388;16.210;2023-05-28T05:55:58;13.40;99.90
45685;DHT22;46836;48.388;16.210;2023-05-28T05:58:25;13.50;99.90
45685;DHT22;46836;48.388;16.210;2023-05-28T06:00:53;13.60;99.90
45685;DHT22;46836;48.388;16.210;2023-05-28T06:03:20;13.70;99.90
45685;DHT22;46836;48.388;16.210;2023-05-28T06:05:50;13.70;99.90
45685;DHT22;46836;48.388;16.210;2023-05-28T06:08:17;13.80;99.90
45685;DHT22;46836;48.388;16.210;2023-05-28T06:10:45;13.80;99.90
45685;DHT22;46836;48.388;16.210;2023-05-28T06:13:14;13.90;99.90
45685;DHT22;46836;48.388;16.210;2023-05-28T06:15:41;14.00;99.90
45685;DHT22;46836;48.388;16.210;2023-05-28T06:18:10;14.00;99.90
45685;DHT22;46836;48.388;16.210;2023-05-28T06:20:37;14.10;99.90
45685;DHT22;46836;48.388;16.210;2023-05-28T06:23:05;14.10;99.90
45685;DHT22;46836;48.388;16.210;2023-05-28T06:25:32;14.20;99.90
45685;DHT22;46836;48.388;16.210;2023-05-28T06:27:59;14.30;99.90
45685;DHT22;46836;48.388;16.210;2023-05-28T06:30:26;14.40;99.90
45685;DHT22;46836;48.388;16.210;2023-05-28T06:32:53;14.40;99.90
45685;DHT22;46836;48.388;16.210;2023-05-28T06:35:20;14.50;99.90
45685;DHT22;46836;48.388;16.210;2023-05-28T06:37:48;14.50;99.90
45685;DHT22;46836;48.388;16.210;2023-05-28T06:40:15;14.60;99.90
45685;DHT22;46836;48.388;16.210;2023-05-28T06:42:42;14.70;99.90
45685;DHT22;46836;48.388;16.210;2023-05-28T06:45:09;14.90;99.90
45685;DHT22;46836;48.388;16.210;2023-05-28T06:47:37;14.90;99.90
45685;DHT22;46836;48.388;16.210;2023-05-28T06:50:05;15.00;99.90
45685;DHT22;46836;48.388;16.210;2023-05-28T06:52:32;15.10;99.90
45685;DHT22;46836;48.388;16.210;2023-05-28T06:54:59;15.20;99.90
45685;DHT22;46836;48.388;16.210;2023-05-28T06:57:26;15.30;99.90
45685;DHT22;46836;48.388;16.210;2023-05-28T06:59:54;15.40;99.90
45685;DHT22;46836;48.388;16.210;2023-05-28T07:02:21;15.50;99.90
45685;DHT22;46836;48.388;16.210;2023-05-28T07:04:49;15.50;99.90
45685;DHT22;46836;48.388;16.210;2023-05-28T07:07:17;15.60;99.90
45685;DHT22;46836;48.388;16.210;2023-05-28T07:09:44;15.70;99.90
45685;DHT22;46836;48.388;16.210;2023-05-28T07:12:12;15.70;99.90
45685;DHT22;46836;48.388;16.210;2023-05-28T07:14:39;15.80;99.90
45685;DHT22;46836;48.388;16.210;2023-05-28T07:17:06;16.00;99.90
45685;DHT22;46836;48.388;16.210;2023-05-28T07:19:33;16.10;99.90
45685;DHT22;46836;48.388;16.210;2023-05-28T07:22:01;16.20;99.90
45685;DHT22;46836;48.388;16.210;2023-05-28T07:24:28;16.30;99.90
45685;DHT22;46836;48.388;16.210;2023-05-28T07:26:55;16.40;99.90
45685;DHT22;46836;48.388;16.210;2023-05-28T07:29:22;16.60;99.90
45685;DHT22;46836;48.388;16.210;2023-05-28T07:31:49;16.70;99.90
45685;DHT22;46836;48.388;16.210;2023-05-28T07:34:16;16.80;99.90
45685;DHT22;46836;48.388;16.210;2023-05-28T07:36:43;16.80;99.90
45685;DHT22;46836;48.388;16.210;2023-05-28T07:39:10;16.70;99.90
45685;DHT22;46836;48.388;16.210;2023-05-28T07:41:38;16.80;99.90
45685;DHT22;46836;48.388;16.210;2023-05-28T07:44:05;16.90;99.90
45685;DHT22;46836;48.388;16.210;2023-05-28T07:46:34;17.00;99.90
45685;DHT22;46836;48.388;16.210;2023-05-28T07:49:02;17.10;99.90
45685;DHT22;46836;48.388;16.210;2023-05-28T07:51:29;17.20;99.90
45685;DHT22;46836;48.388;16.210;2023-05-28T07:53:56;17.40;99.90
45685;DHT22;46836;48.388;16.210;2023-05-28T07:56:23;17.50;99.90
45685;DHT22;46836;48.388;16.210;2023-05-28T07:58:50;17.50;99.90
45685;DHT22;46836;48.388;16.210;2023-05-28T08:01:18;17.60;99.90
45685;DHT22;46836;48.388;16.210;2023-05-28T08:03:45;17.70;99.90
45685;DHT22;46836;48.388;16.210;2023-05-28T08:06:18;17.70;99.90
45685;DHT22;46836;48.388;16.210;2023-05-28T08:08:45;17.70;99.90
45685;DHT22;46836;48.388;16.210;2023-05-28T08:11:12;17.80;99.90
45685;DHT22;46836;48.388;16.210;2023-05-28T08:13:41;17.90;99.90
45685;DHT22;46836;48.388;16.210;2023-05-28T08:16:10;18.00;99.90
45685;DHT22;46836;48.388;16.210;2023-05-28T08:18:39;18.10;99.90
45685;DHT22;46836;48.388;16.210;2023-05-28T08:21:06;18.10;99.90
45685;DHT22;46836;48.388;16.210;2023-05-28T08:23:36;18.30;99.90
45685;DHT22;46836;48.388;16.210;2023-05-28T08:26:03;18.50;99.90
45685;DHT22;46836;48.388;16.210;2023-05-28T08:28:31;18.60;99.90
45685;DHT22;46836;48.388;16.210;2023-05-28T08:30:59;18.80;99.90
45685;DHT22;46836;48.388;16.210;2023-05-28T08:33:26;19.00;99.90
45685;DHT22;46836;48.388;16.210;2023-05-28T08:35:54;19.10;99.90
45685;DHT22;46836;48.388;16.210;2023-05-28T08:38:21;19.20;99.90
45685;DHT22;46836;48.388;16.210;2023-05-28T08:40:51;19.40;99.90
45685;DHT22;46836;48.388;16.210;2023-05-28T08:43:19;19.40;99.90
45685;DHT22;46836;48.388;16.210;2023-05-28T08:45:47;19.40;99.90
45685;DHT22;46836;48.388;16.210;2023-05-28T08:48:15;19.30;99.90
45685;DHT22;46836;48.388;16.210;2023-05-28T08:50:46;19.40;99.90
45685;DHT22;46836;48.388;16.210;2023-05-28T08:53:20;19.40;99.90
45685;DHT22;46836;48.388;16.210;2023-05-28T08:55:48;19.50;99.90
45685;DHT22;46836;48.388;16.210;2023-05-28T08:58:17;19.40;99.90
45685;DHT22;46836;48.388;16.210;2023-05-28T09:00:45;19.30;99.90
45685;DHT22;46836;48.388;16.210;2023-05-28T09:03:13;19.40;99.90
45685;DHT22;46836;48.388;16.210;2023-05-28T09:05:42;19.50;99.90
45685;DHT22;46836;48.388;16.210;2023-05-28T09:08:10;19.60;99.90
45685;DHT22;46836;48.388;16.210;2023-05-28T09:10:39;19.60;99.90
45685;DHT22;46836;48.388;16.210;2023-05-28T09:13:06;19.80;99.90
45685;DHT22;46836;48.388;16.210;2023-05-28T09:15:34;20.00;99.90
45685;DHT22;46836;48.388;16.210;2023-05-28T09:18:04;20.20;99.90
45685;DHT22;46836;48.388;16.210;2023-05-28T09:20:31;20.30;99.90
45685;DHT22;46836;48.388;16.210;2023-05-28T09:23:01;20.40;99.90
45685;DHT22;46836;48.388;16.210;2023-05-28T09:25:29;20.60;99.90
45685;DHT22;46836;48.388;16.210;2023-05-28T09:27:59;20.60;99.90
45685;DHT22;46836;48.388;16.210;2023-05-28T09:30:28;20.60;99.90
45685;DHT22;46836;48.388;16.210;2023-05-28T09:33:02;20.60;99.90
45685;DHT22;46836;48.388;16.210;2023-05-28T09:35:31;20.80;99.90
45685;DHT22;46836;48.388;16.210;2023-05-28T09:38:04;20.90;99.90
45685;DHT22;46836;48.388;16.210;2023-05-28T09:40:41;21.00;99.90
45685;DHT22;46836;48.388;16.210;2023-05-28T09:43:12;21.10;99.90
45685;DHT22;46836;48.388;16.210;2023-05-28T09:45:39;21.20;99.90
45685;DHT22;46836;48.388;16.210;2023-05-28T09:48:06;21.00;99.90
45685;DHT22;46836;48.388;16.210;2023-05-28T09:50:33;20.90;99.90
45685;DHT22;46836;48.388;16.210;2023-05-28T09:53:03;20.80;99.90
45685;DHT22;46836;48.388;16.210;2023-05-28T09:55:32;21.00;99.90
45685;DHT22;46836;48.388;16.210;2023-05-28T09:58:04;21.00;99.90
45685;DHT22;46836;48.388;16.210;2023-05-28T10:00:45;21.10;99.90
45685;DHT22;46836;48.388;16.210;2023-05-28T10:03:21;21.30;99.90
45685;DHT22;46836;48.388;16.210;2023-05-28T10:05:52;21.40;99.90
45685;DHT22;46836;48.388;16.210;2023-05-28T10:08:22;21.60;99.90
45685;DHT22;46836;48.388;16.210;2023-05-28T10:10:55;21.70;99.90
45685;DHT22;46836;48.388;16.210;2023-05-28T10:13:22;21.70;99.90
45685;DHT22;46836;48.388;16.210;2023-05-28T10:15:50;21.70;99.90
45685;DHT22;46836;48.388;16.210;2023-05-28T10:18:19;21.60;99.90
45685;DHT22;46836;48.388;16.210;2023-05-28T10:20:47;21.60;99.90
45685;DHT22;46836;48.388;16.210;2023-05-28T10:23:14;21.70;99.90
45685;DHT22;46836;48.388;16.210;2023-05-28T10:25:43;21.70;99.90
45685;DHT22;46836;48.388;16.210;2023-05-28T10:28:14;21.80;99.90
45685;DHT22;46836;48.388;16.210;2023-05-28T10:30:42;21.90;99.90
45685;DHT22;46836;48.388;16.210;2023-05-28T10:33:14;21.90;99.90
45685;DHT22;46836;48.388;16.210;2023-05-28T10:35:53;22.00;99.90
45685;DHT22;46836;48.388;16.210;2023-05-28T10:38:22;21.90;99.90
45685;DHT22;46836;48.388;16.210;2023-05-28T10:40:49;21.80;99.90
45685;DHT22;46836;48.388;16.210;2023-05-28T10:46:16;22.20;99.90
45685;DHT22;46836;48.388;16.210;2023-05-28T10:49:13;22.10;99.90
45685;DHT22;46836;48.388;16.210;2023-05-28T10:52:00;22.10;99.90
45685;DHT22;46836;48.388;16.210;2023-05-28T10:59:58;22.50;99.90
45685;DHT22;46836;48.388;16.210;2023-05-28T11:02:33;22.50;99.90
45685;DHT22;46836;48.388;16.210;2023-05-28T11:05:02;22.50;99.90
45685;DHT22;46836;48.388;16.210;2023-05-28T11:07:41;22.30;99.90
45685;DHT22;46836;48.388;16.210;2023-05-28T11:10:10;22.30;99.90
45685;DHT22;46836;48.388;16.210;2023-05-28T11:12:39;22.40;99.90
45685;DHT22;46836;48.388;16.210;2023-05-28T11:15:12;22.70;99.90
45685;DHT22;46836;48.388;16.210;2023-05-28T11:17:40;22.90;99.90
45685;DHT22;46836;48.388;16.210;2023-05-28T11:20:22;23.20;99.90
45685;DHT22;46836;48.388;16.210;2023-05-28T11:22:53;23.40;99.90
45685;DHT22;46836;48.388;16.210;2023-05-28T11:25:21;23.50;99.90
45685;DHT22;46836;48.388;16.210;2023-05-28T11:27:49;23.50;99.90
45685;DHT22;46836;48.388;16.210;2023-05-28T11:30:19;23.40;99.90
45685;DHT22;46836;48.388;16.210;2023-05-28T11:32:49;23.50;99.90
45685;DHT22;46836;48.388;16.210;2023-05-28T11:35:17;23.30;99.90
45685;DHT22;46836;48.388;16.210;2023-05-28T11:37:45;23.30;99.90
45685;DHT22;46836;48.388;16.210;2023-05-28T11:40:14;23.50;99.90
45685;DHT22;46836;48.388;16.210;2023-05-28T11:42:43;23.60;99.90
45685;DHT22;46836;48.388;16.210;2023-05-28T11:45:12;23.80;99.90
45685;DHT22;46836;48.388;16.210;2023-05-28T11:47:39;23.90;99.90
45685;DHT22;46836;48.388;16.210;2023-05-28T11:50:15;24.00;99.90
45685;DHT22;46836;48.388;16.210;2023-05-28T11:52:43;24.20;99.90
45685;DHT22;46836;48.388;16.210;2023-05-28T11:55:11;24.30;99.90
45685;DHT22;46836;48.388;16.210;2023-05-28T11:57:38;24.40;99.90
45685;DHT22;46836;48.388;16.210;2023-05-28T12:00:13;24.40;99.90
45685;DHT22;46836;48.388;16.210;2023-05-28T12:02:51;24.40;99.90
45685;DHT22;46836;48.388;16.210;2023-05-28T12:05:19;24.30;99.90
45685;DHT22;46836;48.388;16.210;2023-05-28T12:07:49;24.30;99.90
45685;DHT22;46836;48.388;16.210;2023-05-28T12:10:18;24.10;99.90
45685;DHT22;46836;48.388;16.210;2023-05-28T12:12:50;23.90;98.40
45685;DHT22;46836;48.388;16.210;2023-05-28T12:15:25;23.80;99.30
45685;DHT22;46836;48.388;16.210;2023-05-28T12:17:59;24.00;99.90
45685;DHT22;46836;48.388;16.210;2023-05-28T12:20:41;24.10;99.90
45685;DHT22;46836;48.388;16.210;2023-05-28T12:23:10;24.30;99.90
45685;DHT22;46836;48.388;16.210;2023-05-28T12:28:15;24.30;99.40
45685;DHT22;46836;48.388;16.210;2023-05-28T12:30:44;24.30;98.60
45685;DHT22;46836;48.388;16.210;2023-05-28T12:33:12;24.20;99.60
45685;DHT22;46836;48.388;16.210;2023-05-28T12:35:39;24.10;98.90
45685;DHT22;46836;48.388;16.210;2023-05-28T12:38:07;24.20;98.20
45685;DHT22;46836;48.388;16.210;2023-05-28T12:40:34;24.30;98.60
45685;DHT22;46836;48.388;16.210;2023-05-28T12:43:01;24.40;98.00
45685;DHT22;46836;48.388;16.210;2023-05-28T12:45:29;24.50;98.90
45685;DHT22;46836;48.388;16.210;2023-05-28T12:47:56;24.70;98.90
45685;DHT22;46836;48.388;16.210;2023-05-28T12:50:23;24.70;98.00
45685;DHT22;46836;48.388;16.210;2023-05-28T12:52:51;24.60;96.20
45685;DHT22;46836;48.388;16.210;2023-05-28T12:55:18;24.60;96.70
45685;DHT22;46836;48.388;16.210;2023-05-28T12:57:45;24.60;97.30
45685;DHT22;46836;48.388;16.210;2023-05-28T13:00:12;24.60;96.50
45685;DHT22;46836;48.388;16.210;2023-05-28T13:02:40;24.50;96.60
45685;DHT22;46836;48.388;16.210;2023-05-28T13:05:08;24.60;97.50
45685;DHT22;46836;48.388;16.210;2023-05-28T13:07:35;24.70;97.90
45685;DHT22;46836;48.388;16.210;2023-05-28T13:10:03;24.60;98.30
45685;DHT22;46836;48.388;16.210;2023-05-28T13:12:31;24.80;98.50
45685;DHT22;46836;48.388;16.210;2023-05-28T13:15:00;24.80;97.70
45685;DHT22;46836;48.388;16.210;2023-05-28T13:17:27;24.90;97.90
45685;DHT22;46836;48.388;16.210;2023-05-28T13:19:54;24.90;97.60
45685;DHT22;46836;48.388;16.210;2023-05-28T13:22:22;24.90;97.30
45685;DHT22;46836;48.388;16.210;2023-05-28T13:24:49;25.00;97.40
45685;DHT22;46836;48.388;16.210;2023-05-28T13:27:16;24.90;96.80
45685;DHT22;46836;48.388;16.210;2023-05-28T13:29:43;24.90;97.30
45685;DHT22;46836;48.388;16.210;2023-05-28T13:32:10;25.10;97.10
45685;DHT22;46836;48.388;16.210;2023-05-28T13:34:38;25.20;97.10
45685;DHT22;46836;48.388;16.210;2023-05-28T13:37:07;25.30;97.70
45685;DHT22;46836;48.388;16.210;2023-05-28T13:39:34;25.50;97.30
45685;DHT22;46836;48.388;16.210;2023-05-28T13:42:02;25.60;96.20
45685;DHT22;46836;48.388;16.210;2023-05-28T13:44:30;25.80;96.80
45685;DHT22;46836;48.388;16.210;2023-05-28T13:46:58;25.90;96.20
45685;DHT22;46836;48.388;16.210;2023-05-28T13:49:25;25.90;95.30
45685;DHT22;46836;48.388;16.210;2023-05-28T13:51:53;25.90;95.70
45685;DHT22;46836;48.388;16.210;2023-05-28T13:54:20;25.90;96.00
45685;DHT22;46836;48.388;16.210;2023-05-28T13:56:47;26.00;96.20
45685;DHT22;46836;48.388;16.210;2023-05-28T13:59:14;25.90;96.20
45685;DHT22;46836;48.388;16.210;2023-05-28T14:01:41;25.80;96.50
45685;DHT22;46836;48.388;16.210;2023-05-28T14:04:09;25.80;95.40
45685;DHT22;46836;48.388;16.210;2023-05-28T14:06:36;25.90;96.00
45685;DHT22;46836;48.388;16.210;2023-05-28T14:09:03;25.90;95.10
45685;DHT22;46836;48.388;16.210;2023-05-28T14:11:32;25.80;96.00
45685;DHT22;46836;48.388;16.210;2023-05-28T14:14:19;26.00;95.80
45685;DHT22;46836;48.388;16.210;2023-05-28T14:16:46;26.00;95.30
45685;DHT22;46836;48.388;16.210;2023-05-28T14:19:13;26.10;94.20
45685;DHT22;46836;48.388;16.210;2023-05-28T14:21:40;26.00;94.00
45685;DHT22;46836;48.388;16.210;2023-05-28T14:24:08;26.10;94.90
45685;DHT22;46836;48.388;16.210;2023-05-28T14:26:35;26.10;95.50
45685;DHT22;46836;48.388;16.210;2023-05-28T14:29:02;26.20;95.10
45685;DHT22;46836;48.388;16.210;2023-05-28T14:31:29;25.70;93.70
45685;DHT22;46836;48.388;16.210;2023-05-28T14:33:57;25.60;95.00
45685;DHT22;46836;48.388;16.210;2023-05-28T14:36:24;25.40;94.60
45685;DHT22;46836;48.388;16.210;2023-05-28T14:38:51;25.20;94.20
45685;DHT22;46836;48.388;16.210;2023-05-28T14:41:18;25.30;95.00
45685;DHT22;46836;48.388;16.210;2023-05-28T14:43:45;25.50;94.40
45685;DHT22;46836;48.388;16.210;2023-05-28T14:46:12;25.60;94.70
45685;DHT22;46836;48.388;16.210;2023-05-28T14:48:39;25.70;93.90
45685;DHT22;46836;48.388;16.210;2023-05-28T14:51:06;25.80;94.60
45685;DHT22;46836;48.388;16.210;2023-05-28T14:53:34;25.80;93.90
45685;DHT22;46836;48.388;16.210;2023-05-28T14:56:01;25.80;93.70
45685;DHT22;46836;48.388;16.210;2023-05-28T14:58:28;26.00;94.50
45685;DHT22;46836;48.388;16.210;2023-05-28T15:00:57;26.00;93.90
45685;DHT22;46836;48.388;16.210;2023-05-28T15:03:30;25.80;94.70
45685;DHT22;46836;48.388;16.210;2023-05-28T15:05:58;25.90;93.90
45685;DHT22;46836;48.388;16.210;2023-05-28T15:08:25;25.80;93.00
45685;DHT22;46836;48.388;16.210;2023-05-28T15:10:52;25.90;92.60
45685;DHT22;46836;48.388;16.210;2023-05-28T15:13:19;26.00;92.60
45685;DHT22;46836;48.388;16.210;2023-05-28T15:15:47;26.00;92.70
45685;DHT22;46836;48.388;16.210;2023-05-28T15:18:14;25.80;93.20
45685;DHT22;46836;48.388;16.210;2023-05-28T15:20:41;25.60;93.50
45685;DHT22;46836;48.388;16.210;2023-05-28T15:23:08;25.60;94.40
45685;DHT22;46836;48.388;16.210;2023-05-28T15:25:36;25.50;94.60
45685;DHT22;46836;48.388;16.210;2023-05-28T15:28:03;25.50;94.40
45685;DHT22;46836;48.388;16.210;2023-05-28T15:30:31;25.60;94.00
45685;DHT22;46836;48.388;16.210;2023-05-28T15:32:59;25.60;93.90
45685;DHT22;46836;48.388;16.210;2023-05-28T15:35:28;25.60;94.30